createdAt,value
2019-03-20T00:00:44.627Z,56.13
2019-03-20T00:03:15.110Z,57.47
2019-03-20T00:05:45.531Z,56.47
2019-03-20T00:08:16.009Z,68.87
2019-03-20T00:10:46.400Z,69.90
2019-03-20T00:13:16.881Z,66.67
2019-03-20T00:15:47.288Z,73.53
2019-03-20T00:18:17.737Z,67.10
2019-03-20T00:20:48.136Z,67.47
2019-03-20T00:23:19.650Z,61.83
2019-03-20T00:25:50.077Z,60.03
2019-03-20T00:28:20.548Z,56.63
2019-03-20T00:30:50.965Z,55.53
2019-03-20T00:33:21.446Z,54.83
2019-03-20T00:35:51.945Z,54.93
2019-03-20T00:38:22.419Z,60.60
2019-03-20T00:40:52.935Z,60.77
2019-03-20T00:43:23.424Z,55.67
2019-03-20T00:45:53.821Z,61.47
2019-03-20T00:48:24.326Z,57.90
2019-03-20T00:50:54.719Z,54.33
2019-03-20T00:53:25.220Z,60.27
2019-03-20T00:55:55.643Z,59.90
2019-03-20T00:58:26.143Z,65.20
2019-03-20T01:00:56.542Z,60.80
2019-03-20T01:03:27.005Z,67.50
2019-03-20T01:05:57.470Z,66.33
2019-03-20T01:08:27.951Z,71.27
2019-03-20T01:10:58.386Z,81.87
2019-03-20T01:13:28.863Z,59.60
2019-03-20T01:15:59.270Z,66.83
2019-03-20T01:18:29.761Z,65.73
2019-03-20T01:21:00.280Z,69.90
2019-03-20T01:23:31.772Z,70.20
2019-03-20T01:26:02.166Z,64.10
2019-03-20T01:28:32.615Z,65.87
2019-03-20T01:31:03.002Z,71.53
2019-03-20T01:33:33.471Z,66.03
2019-03-20T01:36:03.899Z,66.50
2019-03-20T01:38:34.367Z,73.37
2019-03-20T01:41:04.767Z,72.83
2019-03-20T01:43:35.228Z,72.63
2019-03-20T01:46:05.761Z,66.43
2019-03-20T01:48:36.217Z,70.33
2019-03-20T01:51:20.828Z,79.30
2019-03-20T01:53:51.284Z,69.80
2019-03-20T01:56:21.679Z,91.43
2019-03-20T01:58:52.065Z,70.17
2019-03-20T02:01:22.411Z,68.03
2019-03-20T02:03:52.897Z,69.87
2019-03-20T02:06:23.332Z,76.70
2019-03-20T02:08:53.775Z,73.90
2019-03-20T02:11:24.203Z,70.00
2019-03-20T02:13:54.727Z,71.30
2019-03-20T02:16:25.140Z,76.40
2019-03-20T02:18:55.584Z,75.93
2019-03-20T02:21:25.982Z,82.30
2019-03-20T02:23:57.391Z,85.03
2019-03-20T02:26:27.847Z,73.40
2019-03-20T02:28:58.337Z,90.60
2019-03-20T02:31:28.812Z,93.63
2019-03-20T02:33:59.294Z,81.23
2019-03-20T02:36:29.766Z,86.47
2019-03-20T02:39:00.278Z,81.73
2019-03-20T02:41:30.677Z,81.13
2019-03-20T02:44:01.565Z,82.80
2019-03-20T02:46:31.978Z,79.80
2019-03-20T02:49:02.432Z,86.03
2019-03-20T02:51:32.875Z,86.43
2019-03-20T02:54:03.359Z,88.17
2019-03-20T02:56:33.759Z,90.30
2019-03-20T02:59:04.253Z,100.70
2019-03-20T03:01:34.687Z,88.90
2019-03-20T03:04:05.338Z,94.60
2019-03-20T03:06:35.775Z,97.10
2019-03-20T03:09:08.270Z,98.13
2019-03-20T03:11:38.691Z,95.03
2019-03-20T03:14:09.164Z,99.43
2019-03-20T03:16:39.581Z,113.40
2019-03-20T03:19:10.022Z,98.90
2019-03-20T03:21:40.466Z,108.47
2019-03-20T03:24:11.959Z,115.00
2019-03-20T03:26:42.395Z,103.33
2019-03-20T03:29:12.866Z,107.13
2019-03-20T03:31:43.302Z,105.77
2019-03-20T03:34:13.776Z,105.30
2019-03-20T03:36:44.210Z,124.27
2019-03-20T03:39:14.679Z,108.00
2019-03-20T03:41:45.117Z,131.47
2019-03-20T03:44:15.598Z,106.90
2019-03-20T03:46:46.006Z,104.60
2019-03-20T03:49:16.798Z,110.57
2019-03-20T03:51:47.211Z,102.57
2019-03-20T03:54:17.658Z,118.80
2019-03-20T03:56:48.888Z,92.00
2019-03-20T03:59:19.259Z,98.13
2019-03-20T04:01:49.746Z,108.43
2019-03-20T04:04:20.184Z,104.33
2019-03-20T04:06:50.592Z,117.90
2019-03-20T04:09:21.063Z,106.17
2019-03-20T04:11:51.478Z,127.23
2019-03-20T04:14:21.933Z,133.73
2019-03-20T04:16:52.375Z,110.57
2019-03-20T04:19:22.833Z,107.33
2019-03-20T04:21:53.228Z,87.03
2019-03-20T04:24:24.777Z,87.13
2019-03-20T04:26:56.073Z,104.93
2019-03-20T04:29:26.524Z,82.43
2019-03-20T04:31:56.972Z,71.97
2019-03-20T04:34:27.466Z,65.20
2019-03-20T04:36:57.991Z,80.73
2019-03-20T04:39:28.460Z,65.60
2019-03-20T04:41:58.867Z,74.17
2019-03-20T04:44:29.348Z,65.67
2019-03-20T04:46:59.807Z,60.93
2019-03-20T04:49:30.283Z,63.97
2019-03-20T04:52:00.727Z,57.93
2019-03-20T04:54:31.188Z,61.80
2019-03-20T04:57:01.644Z,69.70
2019-03-20T04:59:32.097Z,74.67
2019-03-20T05:02:02.502Z,69.73
2019-03-20T05:04:33.005Z,70.30
2019-03-20T05:07:03.440Z,69.80
2019-03-20T05:09:33.952Z,72.70
2019-03-20T05:12:04.420Z,79.63
2019-03-20T05:14:34.884Z,93.33
2019-03-20T05:17:05.351Z,91.47
2019-03-20T05:19:35.816Z,79.80
2019-03-20T05:22:06.349Z,82.33
2019-03-20T05:24:37.782Z,91.97
2019-03-20T05:27:08.207Z,75.50
2019-03-20T05:29:38.652Z,74.97
2019-03-20T05:32:09.068Z,77.03
2019-03-20T05:34:39.538Z,95.40
2019-03-20T05:37:10.902Z,78.30
2019-03-20T05:39:41.470Z,91.53
2019-03-20T05:42:11.892Z,82.40
2019-03-20T05:44:42.341Z,76.40
2019-03-20T05:47:12.777Z,86.57
2019-03-20T05:49:43.221Z,83.50
2019-03-20T05:52:13.659Z,86.40
2019-03-20T05:54:44.130Z,88.27
2019-03-20T05:57:14.586Z,75.20
2019-03-20T05:59:45.042Z,72.57
2019-03-20T06:02:15.483Z,78.37
2019-03-20T06:04:45.976Z,91.03
2019-03-20T06:07:21.561Z,101.73
2019-03-20T06:09:48.586Z,105.50
2019-03-20T06:12:19.394Z,88.93
2019-03-20T06:14:49.880Z,103.90
2019-03-20T06:17:20.336Z,97.10
2019-03-20T06:19:50.789Z,92.93
2019-03-20T06:22:22.556Z,104.07
2019-03-20T06:24:54.998Z,88.47
2019-03-20T06:27:25.425Z,78.60
2019-03-20T06:29:55.867Z,82.90
2019-03-20T06:32:26.295Z,73.50
2019-03-20T06:34:56.754Z,80.20
2019-03-20T06:37:32.494Z,96.40
2019-03-20T06:39:59.395Z,86.87
2019-03-20T06:42:29.876Z,92.60
2019-03-20T06:45:00.405Z,89.47
2019-03-20T06:47:31.637Z,87.53
2019-03-20T06:50:02.115Z,80.80
2019-03-20T06:52:32.549Z,75.07
2019-03-20T06:55:03.049Z,63.27
2019-03-20T06:57:33.470Z,84.00
2019-03-20T07:00:29.393Z,69.00
2019-03-20T07:03:01.389Z,70.17
2019-03-20T07:06:04.850Z,65.60
2019-03-20T07:08:53.021Z,71.13
2019-03-20T07:11:22.245Z,70.20
2019-03-20T07:13:52.689Z,72.07
2019-03-20T07:16:23.181Z,66.10
2019-03-20T07:18:53.623Z,77.33
2019-03-20T07:21:24.093Z,92.47
2019-03-20T07:23:54.529Z,72.10
2019-03-20T07:26:25.958Z,68.77
2019-03-20T07:28:56.402Z,77.00
2019-03-20T07:31:26.845Z,75.10
2019-03-20T07:33:57.262Z,68.43
2019-03-20T07:36:27.711Z,67.70
2019-03-20T07:38:58.147Z,82.83
2019-03-20T07:41:28.623Z,80.20
2019-03-20T07:44:00.256Z,75.30
2019-03-20T07:46:30.748Z,77.80
2019-03-20T07:49:01.186Z,80.47
2019-03-20T07:51:31.633Z,89.80
2019-03-20T07:54:02.041Z,98.50
2019-03-20T07:56:32.528Z,84.33
2019-03-20T07:59:03.385Z,94.87
2019-03-20T08:01:34.073Z,86.43
2019-03-20T08:04:04.635Z,82.23
2019-03-20T08:06:39.425Z,73.93
2019-03-20T08:09:12.837Z,69.27
2019-03-20T08:11:50.396Z,78.30
2019-03-20T08:14:22.863Z,63.60
2019-03-20T08:16:53.412Z,65.57
2019-03-20T08:19:25.294Z,69.37
2019-03-20T08:21:55.822Z,65.20
2019-03-20T08:24:26.449Z,60.93
2019-03-20T08:27:12.357Z,58.80
2019-03-20T08:29:49.274Z,52.23
2019-03-20T08:32:19.782Z,62.57
2019-03-20T08:34:50.233Z,53.87
2019-03-20T08:37:20.797Z,59.17
2019-03-20T08:39:51.231Z,58.77
2019-03-20T08:42:22.544Z,66.63
2019-03-20T08:44:55.402Z,55.97
2019-03-20T08:47:27.695Z,53.90
2019-03-20T08:49:58.169Z,56.73
2019-03-20T08:52:32.668Z,48.80
2019-03-20T08:55:10.417Z,60.20
2019-03-20T08:57:44.011Z,60.63
2019-03-20T09:00:25.240Z,53.40
2019-03-20T09:03:11.761Z,58.93
2019-03-20T09:05:49.775Z,52.73
2019-03-20T09:08:29.467Z,60.57
2019-03-20T09:10:54.722Z,57.73
2019-03-20T09:13:28.422Z,55.70
2019-03-20T09:16:01.363Z,71.07
2019-03-20T09:18:36.284Z,71.03
2019-03-20T09:21:06.760Z,84.93
2019-03-20T09:23:37.302Z,55.47
2019-03-20T09:26:07.781Z,54.93
2019-03-20T09:28:39.309Z,58.80
2019-03-20T09:31:09.725Z,51.70
2019-03-20T09:33:41.731Z,57.27
2019-03-20T09:36:12.231Z,57.83
2019-03-20T09:38:44.247Z,61.23
2019-03-20T09:41:14.662Z,56.30
2019-03-20T09:43:45.139Z,84.23
2019-03-20T09:46:15.600Z,50.93
2019-03-20T09:48:46.083Z,54.13
2019-03-20T09:51:27.054Z,53.63
2019-03-20T09:54:01.545Z,62.00
2019-03-20T09:56:32.247Z,55.17
2019-03-20T09:59:03.225Z,49.23
2019-03-20T10:01:40.947Z,61.80
2019-03-20T10:04:18.874Z,127.63
2019-03-20T10:07:00.618Z,48.67
2019-03-20T10:09:31.118Z,50.53
2019-03-20T10:12:01.542Z,56.67
2019-03-20T10:14:32.069Z,47.10
2019-03-20T10:17:02.502Z,57.40
2019-03-20T10:19:33.166Z,46.97
2019-03-20T10:22:03.608Z,44.57
2019-03-20T10:24:34.273Z,48.30
2019-03-20T10:27:04.895Z,69.13
2019-03-20T10:29:40.585Z,50.83
2019-03-20T10:32:11.190Z,54.80
2019-03-20T10:34:41.959Z,52.20
2019-03-20T10:37:13.474Z,46.00
2019-03-20T10:39:43.977Z,49.60
2019-03-20T10:42:14.405Z,45.03
2019-03-20T10:44:44.993Z,44.43
2019-03-20T10:47:15.564Z,58.20
2019-03-20T10:49:46.220Z,56.20
2019-03-20T10:52:21.302Z,49.63
2019-03-20T10:54:52.275Z,44.45
2019-03-20T10:57:22.838Z,41.10
2019-03-20T10:59:53.469Z,37.38
2019-03-20T11:02:24.077Z,37.63
2019-03-20T11:04:57.742Z,43.95
2019-03-20T11:07:28.219Z,39.95
2019-03-20T11:09:58.810Z,42.78
2019-03-20T11:12:30.966Z,35.80
2019-03-20T11:16:55.107Z,39.85
2019-03-20T11:19:26.189Z,33.83
2019-03-20T11:21:56.725Z,35.85
2019-03-20T11:24:27.317Z,38.92
2019-03-20T11:26:57.836Z,38.35
2019-03-20T11:29:39.776Z,33.53
2019-03-20T11:32:25.066Z,33.88
2019-03-20T11:35:03.206Z,41.35
2019-03-20T11:37:40.442Z,30.52
2019-03-20T11:40:30.143Z,31.35
2019-03-20T11:43:02.035Z,38.80
2019-03-20T11:45:34.421Z,38.08
2019-03-20T11:48:08.385Z,34.00
2019-03-20T11:50:45.130Z,37.88
2019-03-20T11:53:17.116Z,38.67
2019-03-20T11:55:48.191Z,37.73
2019-03-20T11:58:23.002Z,37.25
2019-03-20T12:01:03.620Z,39.80
2019-03-20T12:03:36.350Z,36.55
2019-03-20T12:06:21.862Z,40.80
2019-03-20T12:08:57.792Z,45.40
2019-03-20T12:11:45.203Z,41.45
2019-03-20T12:14:07.804Z,49.40
2019-03-20T12:16:42.672Z,41.70
2019-03-20T12:19:16.825Z,45.17
2019-03-20T12:21:53.281Z,40.40
2019-03-20T12:24:24.329Z,41.83
2019-03-20T12:26:55.238Z,44.13
2019-03-20T12:29:25.761Z,44.10
2019-03-20T12:31:56.202Z,42.80
2019-03-20T12:34:27.613Z,43.42
2019-03-20T12:36:58.103Z,44.08
2019-03-20T12:39:28.613Z,41.77
2019-03-20T12:42:00.174Z,42.67
2019-03-20T12:44:30.611Z,47.15
2019-03-20T12:47:01.052Z,52.85
2019-03-20T12:49:31.557Z,53.58
2019-03-20T12:52:02.368Z,52.13
2019-03-20T12:54:33.548Z,54.85
2019-03-20T12:57:03.973Z,55.92
2019-03-20T12:59:34.933Z,57.33
2019-03-20T13:02:08.166Z,52.78
2019-03-20T13:04:38.699Z,64.32
2019-03-20T13:07:46.273Z,74.62
2019-03-20T13:10:22.404Z,64.17
2019-03-20T13:13:01.421Z,60.63
2019-03-20T13:18:54.972Z,53.40
2019-03-20T13:21:32.696Z,59.88
2019-03-20T13:24:15.120Z,56.75
2019-03-20T13:26:55.248Z,56.50
2019-03-20T13:29:32.055Z,53.20
2019-03-20T13:32:04.805Z,54.53
2019-03-20T13:34:38.366Z,59.35
2019-03-20T13:37:09.441Z,55.52
2019-03-20T13:39:39.886Z,59.93
2019-03-20T13:42:10.366Z,53.95
2019-03-20T13:44:40.935Z,59.42
2019-03-20T13:47:11.403Z,70.72
2019-03-20T13:49:41.856Z,66.05
2019-03-20T13:52:12.654Z,59.67
2019-03-20T13:54:43.206Z,62.60
2019-03-20T13:57:13.678Z,61.25
2019-03-20T13:59:44.165Z,58.25
2019-03-20T14:02:14.675Z,63.10
2019-03-20T14:04:45.252Z,65.10
2019-03-20T14:07:15.751Z,70.22
